This is the latest recevied weather packets stored in our database for station/object K6GMW. If no packets are shown the sender has not sent any weather packets the latest 10 day(s).
| Time | Temp. | Humidity | Pressure | Rain* | Wind** | Luminosity | Snow |
|---|---|---|---|---|---|---|---|
| 1777904170 | 19.44° C | 67% | 1016.5 hPa | 0 mm | - | 493 W/m² | - |
| 1777903867 | 18.89° C | 66% | 1016.8 hPa | 0 mm | - | 440 W/m² | - |
| 1777903564 | 18.89° C | 69% | 1016.5 hPa | 0 mm | - | 483 W/m² | - |
| 1777903259 | 18.89° C | 68% | 1016.6 hPa | 0 mm | - | 407 W/m² | - |
| 1777902956 | 18.33° C | 69% | 1016.5 hPa | 0 mm | - | 393 W/m² | - |
| 1777902653 | 18.33° C | 70% | 1016.7 hPa | 0 mm | - | 382 W/m² | - |
| 1777902350 | 17.78° C | 71% | 1016.7 hPa | 0 mm | - | 351 W/m² | - |
| 1777902047 | 17.78° C | 73% | 1016.6 hPa | 0 mm | - | 356 W/m² | - |
| 1777901746 | 17.22° C | 71% | 1016.6 hPa | 0 mm | - | 278 W/m² | - |
| 1777901442 | 17.22° C | 74% | 1016.4 hPa | 0 mm | - | 249 W/m² | - |
| 1777901140 | 17.22° C | 76% | 1016.6 hPa | 0 mm | - | 288 W/m² | - |
| 1777900838 | 16.67° C | 75% | 1016.6 hPa | 0 mm | - | 221 W/m² | - |
| 1777900535 | 16.67° C | 78% | 1016.5 hPa | 0 mm | - | 233 W/m² | - |
| 1777900232 | 16.11° C | 78% | 1016.3 hPa | 0 mm | - | 194 W/m² | - |
| 1777899928 | 16.11° C | 79% | 1016.3 hPa | 0 mm | - | 192 W/m² | - |
| 1777899625 | 15.56° C | 81% | 1016.5 hPa | 0 mm | - | 194 W/m² | - |
| 1777899322 | 15.56° C | 80% | 1016.4 hPa | 0 mm | - | 173 W/m² | - |
| 1777899020 | 15° C | 82% | 1016.3 hPa | 0 mm | - | 159 W/m² | - |
| 1777898716 | 14.44° C | 85% | 1016.4 hPa | 0 mm | - | 143 W/m² | - |
| 1777898414 | 13.89° C | 85% | 1016.4 hPa | 0 mm | - | 62 W/m² | - |
| 1777898112 | 13.89° C | 86% | 1016.3 hPa | 0 mm | - | 56 W/m² | - |
| 1777897809 | 13.33° C | 87% | 1016.5 hPa | 0 mm | - | 52 W/m² | - |
| 1777897504 | 13.33° C | 87% | 1016.4 hPa | 0 mm | - | 53 W/m² | - |
| 1777897200 | 13.33° C | 87% | 1016.2 hPa | 0 mm | - | 42 W/m² | - |
| 1777896896 | 12.78° C | 87% | 1016.1 hPa | 0 mm | - | 38 W/m² | - |
* Rain latest hour (hover to see other rain measurements)
** Current wind speed in m/s (hover to see current wind gust speed)